Time;durP1;ratioP1;P1;durP2;ratioP2;P2;SDS_P1;SDS_P2;PMS_P1;PMS_P2;Temp;Humidity;BMP_temperature;BMP_pressure;BME280_temperature;BME280_humidity;BME280_pressure;Samples;Min_cycle;Max_cycle;Signal;HPM_P1;HPM_P2
2024/02/14 00:01:53;;;;;;;8.25;2.25;;;23.40;34.70;;;;;;5063431;28;20547;-61
2024/02/14 00:04:20;;;;;;;11.35;2.90;;;23.10;35.30;;;;;;5062486;28;20077;-64
2024/02/14 00:06:46;;;;;;;11.63;2.25;;;23.70;36.30;;;;;;5056345;28;20085;-61
2024/02/14 00:09:13;;;;;;;11.13;2.38;;;24.00;35.50;;;;;;5062885;28;20113;-64
2024/02/14 00:11:39;;;;;;;8.50;7.22;;;24.00;35.60;;;;;;5062533;28;20096;-64
2024/02/14 00:14:07;;;;;;;15.40;2.22;;;24.10;35.40;;;;;;5062056;28;20073;-63
2024/02/14 00:16:34;;;;;;;11.85;2.20;;;24.20;35.30;;;;;;5058665;28;20081;-64
2024/02/14 00:19:02;;;;;;;11.93;2.40;;;24.20;35.10;;;;;;5064750;28;20129;-63
2024/02/14 00:21:28;;;;;;;13.25;2.42;;;24.20;35.10;;;;;;5060967;28;20088;-62
2024/02/14 00:23:58;;;;;;;13.43;2.85;;;24.00;34.50;;;;;;5061934;28;20095;-62
2024/02/14 00:26:24;;;;;;;8.07;2.72;;;24.00;34.80;;;;;;5065007;28;20112;-63
2024/02/14 00:28:51;;;;;;;22.00;2.85;;;23.90;35.10;;;;;;5064721;28;20084;-63
2024/02/14 00:31:17;;;;;;;10.20;2.70;;;23.90;35.70;;;;;;5064585;28;20475;-62
2024/02/14 00:33:46;;;;;;;11.48;2.88;;;23.80;36.20;;;;;;5064793;28;20083;-62
2024/02/14 00:36:12;;;;;;;11.75;3.00;;;23.60;37.00;;;;;;5063103;28;20081;-62
2024/02/14 00:38:39;;;;;;;10.25;3.45;;;23.20;38.50;;;;;;5065325;28;20150;-62
2024/02/14 00:41:05;;;;;;;9.55;2.50;;;23.10;39.30;;;;;;5064020;28;20074;-63
2024/02/14 00:43:32;;;;;;;18.02;3.55;;;23.20;40.00;;;;;;5061862;28;20081;-62
2024/02/14 00:45:58;;;;;;;19.55;3.58;;;23.50;39.00;;;;;;5063534;28;20073;-62
2024/02/14 00:48:25;;;;;;;14.15;3.40;;;23.80;38.40;;;;;;5064923;28;20077;-61
2024/02/14 00:50:52;;;;;;;13.90;4.22;;;24.00;38.00;;;;;;5063030;28;20077;-61
2024/02/14 00:53:18;;;;;;;21.05;3.92;;;23.70;38.40;;;;;;5062821;28;20150;-62
2024/02/14 00:55:45;;;;;;;16.15;3.58;;;23.10;39.10;;;;;;5062018;28;20088;-61
2024/02/14 00:58:11;;;;;;;20.63;3.72;;;22.70;39.90;;;;;;5062269;28;20561;-62
2024/02/14 01:00:38;;;;;;;12.85;3.00;;;22.30;40.40;;;;;;5061351;28;20080;-62
2024/02/14 01:03:06;;;;;;;16.65;4.03;;;21.90;40.80;;;;;;5063515;28;20069;-63
2024/02/14 01:05:33;;;;;;;15.82;4.05;;;21.80;41.00;;;;;;5062105;28;20530;-62
2024/02/14 01:08:00;;;;;;;15.82;3.42;;;21.70;41.20;;;;;;5063041;28;20096;-62
2024/02/14 01:10:26;;;;;;;18.75;4.20;;;21.60;42.20;;;;;;5063049;28;20072;-62
2024/02/14 01:12:53;;;;;;;20.25;3.85;;;21.50;42.10;;;;;;5060606;28;20073;-61
2024/02/14 01:15:21;;;;;;;18.33;4.10;;;21.40;42.20;;;;;;5062025;28;20155;-61
2024/02/14 01:17:48;;;;;;;10.20;3.40;;;21.30;42.40;;;;;;5062560;28;20192;-61
2024/02/14 01:20:15;;;;;;;23.30;4.57;;;21.30;42.50;;;;;;5061066;28;20088;-63
2024/02/14 01:22:41;;;;;;;20.55;4.45;;;21.20;42.50;;;;;;5065527;28;20539;-61
2024/02/14 01:25:10;;;;;;;25.70;4.20;;;21.00;43.00;;;;;;5062457;28;20120;-62
2024/02/14 01:27:37;;;;;;;22.33;4.75;;;20.90;43.50;;;;;;5062826;28;20608;-61
2024/02/14 01:30:05;;;;;;;23.88;5.20;;;20.70;43.70;;;;;;5062115;28;20081;-62
2024/02/14 01:32:31;;;;;;;13.75;4.55;;;20.50;44.20;;;;;;5063930;28;20070;-62
2024/02/14 01:34:59;;;;;;;20.27;4.20;;;20.20;44.90;;;;;;5061646;28;20076;-61
2024/02/14 01:37:26;;;;;;;17.15;4.55;;;20.10;45.20;;;;;;5063842;28;20073;-61
2024/02/14 01:39:52;;;;;;;29.73;4.40;;;20.00;45.10;;;;;;5062752;28;20081;-61
2024/02/14 01:42:18;;;;;;;29.73;5.13;;;19.90;45.00;;;;;;5061137;28;20453;-62
2024/02/14 01:44:45;;;;;;;32.90;5.47;;;19.80;45.60;;;;;;5060453;28;20485;-61
2024/02/14 01:47:12;;;;;;;34.75;6.10;;;19.70;46.00;;;;;;5061760;28;20463;-64
2024/02/14 01:49:39;;;;;;;26.23;7.70;;;19.50;46.70;;;;;;5059988;28;20529;-63
2024/02/14 01:52:07;;;;;;;30.33;5.35;;;19.40;46.80;;;;;;5061042;28;20105;-62
2024/02/14 01:54:35;;;;;;;23.77;5.45;;;19.30;46.60;;;;;;5059875;28;20099;-63
2024/02/14 01:57:02;;;;;;;39.03;6.15;;;19.10;47.30;;;;;;5062031;28;20491;-63
2024/02/14 01:59:30;;;;;;;29.58;5.80;;;19.00;47.50;;;;;;5063284;28;20187;-62
2024/02/14 02:01:56;;;;;;;80.15;54.97;;;19.00;47.30;;;;;;5062361;28;20077;-66
2024/02/14 02:04:23;;;;;;;72.10;45.15;;;18.90;48.10;;;;;;5061150;28;20452;-67
2024/02/14 02:06:50;;;;;;;128.35;87.72;;;18.80;48.60;;;;;;5060590;28;20168;-63
2024/02/14 02:09:16;;;;;;;62.65;20.35;;;18.60;48.70;;;;;;5059765;28;20763;-67
2024/02/14 02:11:48;;;;;;;37.85;9.98;;;18.50;48.30;;;;;;5063079;28;20073;-67
2024/02/14 02:14:16;;;;;;;54.15;11.40;;;18.50;49.30;;;;;;5062258;28;20073;-63
2024/02/14 02:16:43;;;;;;;45.22;12.75;;;18.40;49.00;;;;;;5064475;28;20537;-69
2024/02/14 02:19:09;;;;;;;41.65;11.55;;;18.40;49.50;;;;;;5061601;28;20188;-63
2024/02/14 02:21:39;;;;;;;42.60;12.98;;;18.30;49.80;;;;;;5060881;28;20069;-64
2024/02/14 02:24:06;;;;;;;64.68;13.35;;;18.10;50.00;;;;;;5062878;28;20073;-64
2024/02/14 02:26:33;;;;;;;41.60;12.07;;;18.00;50.40;;;;;;5062213;28;20087;-61
2024/02/14 02:28:59;;;;;;;53.33;13.90;;;17.90;50.70;;;;;;5062606;28;20085;-63
2024/02/14 02:31:26;;;;;;;54.25;12.35;;;17.80;51.50;;;;;;5060239;28;20085;-65
2024/02/14 02:33:53;;;;;;;56.42;12.20;;;17.70;52.00;;;;;;5059829;28;20077;-66
2024/02/14 02:36:19;;;;;;;66.93;12.00;;;17.60;52.60;;;;;;5059564;28;20164;-64
2024/02/14 02:38:45;;;;;;;71.20;12.57;;;17.60;52.50;;;;;;5060990;28;20169;-67
2024/02/14 02:41:12;;;;;;;72.03;11.75;;;17.50;53.00;;;;;;5058426;28;20103;-65
2024/02/14 02:43:38;;;;;;;47.20;11.00;;;17.40;52.90;;;;;;5059815;28;21448;-62
2024/02/14 02:46:05;;;;;;;53.63;10.55;;;17.40;53.60;;;;;;5068055;28;20069;-63
2024/02/14 02:48:31;;;;;;;75.60;13.02;;;17.20;54.30;;;;;;5065138;28;20488;-64
2024/02/14 02:50:58;;;;;;;78.10;13.05;;;17.20;54.20;;;;;;5063360;28;20089;-63
2024/02/14 02:53:24;;;;;;;80.05;12.25;;;17.20;54.70;;;;;;5062847;28;20123;-62
2024/02/14 02:55:52;;;;;;;64.85;10.98;;;17.10;55.40;;;;;;5066449;28;20077;-64
2024/02/14 02:58:20;;;;;;;59.35;12.18;;;17.10;55.10;;;;;;5065669;28;20109;-64
2024/02/14 03:00:49;;;;;;;64.50;11.18;;;17.00;54.80;;;;;;5065165;28;20077;-63
2024/02/14 03:03:18;;;;;;;78.93;11.70;;;16.90;55.10;;;;;;5066492;28;20160;-63
2024/02/14 03:05:45;;;;;;;85.38;10.75;;;16.90;55.10;;;;;;5064143;28;20098;-64
2024/02/14 03:08:15;;;;;;;93.43;11.57;;;16.80;54.80;;;;;;5065921;28;20081;-62
2024/02/14 03:10:42;;;;;;;79.03;10.55;;;16.90;54.60;;;;;;5065242;28;20168;-61
2024/02/14 03:13:11;;;;;;;63.50;11.18;;;16.90;55.60;;;;;;5062400;28;20440;-64
2024/02/14 03:15:38;;;;;;;65.15;11.10;;;16.80;54.80;;;;;;5064309;28;20077;-63
2024/02/14 03:18:09;;;;;;;62.58;10.18;;;16.80;54.40;;;;;;5066107;28;20214;-63
2024/02/14 03:20:36;;;;;;;61.65;10.32;;;16.80;54.70;;;;;;5064853;28;20077;-60
2024/02/14 03:23:06;;;;;;;52.20;10.35;;;16.80;54.10;;;;;;5062980;28;20107;-64
2024/02/14 03:25:32;;;;;;;59.10;9.70;;;16.70;54.50;;;;;;5069020;28;20073;-61
2024/02/14 03:27:59;;;;;;;46.05;9.32;;;16.70;54.40;;;;;;5066979;28;20119;-63
2024/02/14 03:30:25;;;;;;;64.40;16.73;;;16.70;54.70;;;;;;5068457;28;20124;-64
2024/02/14 03:32:52;;;;;;;66.65;11.60;;;16.70;55.00;;;;;;5066767;28;20073;-64
2024/02/14 03:35:20;;;;;;;48.70;8.80;;;16.70;55.40;;;;;;5062627;28;20084;-62
2024/02/14 03:37:52;;;;;;;58.42;11.07;;;16.70;55.60;;;;;;5065218;28;20112;-62
2024/02/14 03:40:22;;;;;;;66.93;11.00;;;16.70;55.60;;;;;;5064401;28;20604;-62
2024/02/14 03:42:48;;;;;;;58.95;10.73;;;16.60;56.10;;;;;;5066435;28;20615;-62
2024/02/14 03:45:15;;;;;;;60.75;11.38;;;16.60;56.10;;;;;;5062364;28;20444;-60
2024/02/14 03:47:41;;;;;;;61.33;12.13;;;16.50;56.30;;;;;;5065716;28;20085;-62
2024/02/14 03:50:09;;;;;;;55.03;11.73;;;16.50;56.60;;;;;;5064638;28;20124;-61
2024/02/14 03:52:35;;;;;;;74.00;13.65;;;16.30;57.30;;;;;;5064173;28;20193;-62
2024/02/14 03:55:02;;;;;;;69.45;14.25;;;16.20;57.60;;;;;;5065131;28;20210;-61
2024/02/14 03:57:29;;;;;;;55.65;13.60;;;16.10;57.40;;;;;;5066793;28;20533;-62
2024/02/14 03:59:59;;;;;;;73.50;15.82;;;16.00;57.70;;;;;;5061762;28;20082;-61
2024/02/14 04:02:27;;;;;;;66.75;16.08;;;15.90;58.50;;;;;;5064672;28;20089;-60
2024/02/14 04:04:54;;;;;;;73.78;15.43;;;15.80;58.50;;;;;;5063990;28;20459;-61
2024/02/14 04:07:22;;;;;;;102.13;16.92;;;15.70;58.50;;;;;;5064218;28;20529;-62
2024/02/14 04:09:48;;;;;;;88.45;18.80;;;15.70;59.20;;;;;;5064514;28;20069;-61
2024/02/14 04:12:15;;;;;;;97.43;18.92;;;15.70;58.80;;;;;;5061301;28;20077;-63
2024/02/14 04:14:41;;;;;;;90.13;20.05;;;15.70;59.10;;;;;;5064127;28;20081;-63
2024/02/14 04:17:08;;;;;;;81.43;18.38;;;15.60;59.10;;;;;;5064937;28;20528;-63
2024/02/14 04:19:35;;;;;;;97.25;20.70;;;15.50;59.50;;;;;;5061320;28;20125;-62
2024/02/14 04:22:01;;;;;;;89.95;21.23;;;15.40;60.20;;;;;;5064760;28;20445;-62
2024/02/14 04:24:27;;;;;;;102.75;20.75;;;15.40;59.80;;;;;;5064554;28;20096;-62
2024/02/14 04:26:56;;;;;;;91.88;21.00;;;15.30;59.70;;;;;;5066252;28;20081;-62
2024/02/14 04:29:23;;;;;;;84.78;21.00;;;15.30;59.90;;;;;;5065577;28;20523;-61
2024/02/14 04:31:49;;;;;;;112.32;19.23;;;15.20;60.40;;;;;;5064175;28;20081;-62
2024/02/14 04:34:16;;;;;;;81.63;19.30;;;15.20;60.60;;;;;;5063400;28;20139;-62
2024/02/14 04:36:43;;;;;;;89.28;18.27;;;15.20;60.30;;;;;;5063163;28;20073;-61
2024/02/14 04:39:10;;;;;;;75.38;18.92;;;15.20;60.90;;;;;;5062682;28;20112;-62
2024/02/14 04:41:37;;;;;;;111.60;20.52;;;15.10;61.30;;;;;;5062748;28;20168;-61
2024/02/14 04:44:07;;;;;;;95.65;18.27;;;15.10;61.40;;;;;;5064265;28;20077;-61
2024/02/14 04:46:35;;;;;;;81.97;17.42;;;15.10;62.30;;;;;;5065038;28;20448;-62
2024/02/14 04:49:05;;;;;;;87.13;15.73;;;15.00;62.70;;;;;;5061996;28;20558;-62
2024/02/14 04:51:32;;;;;;;84.70;15.05;;;14.90;62.00;;;;;;5063512;28;20117;-62
2024/02/14 04:53:58;;;;;;;92.70;19.13;;;14.90;61.90;;;;;;5064955;28;20087;-62
2024/02/14 04:56:28;;;;;;;75.13;14.82;;;14.90;62.70;;;;;;5063209;28;20071;-61
2024/02/14 04:58:55;;;;;;;73.70;15.40;;;14.90;62.70;;;;;;5061836;28;20108;-61
2024/02/14 05:01:22;;;;;;;61.15;13.68;;;14.90;62.40;;;;;;5065242;28;20070;-61
2024/02/14 05:03:49;;;;;;;81.15;16.67;;;14.80;63.70;;;;;;5064099;28;20536;-61
2024/02/14 05:06:16;;;;;;;74.22;15.55;;;14.70;62.90;;;;;;5064944;28;20081;-60
2024/02/14 05:08:42;;;;;;;71.35;17.48;;;14.70;63.00;;;;;;5062407;28;20074;-61
2024/02/14 05:11:09;;;;;;;70.78;16.98;;;14.70;63.10;;;;;;5059603;28;20489;-62
2024/02/14 05:13:37;;;;;;;69.68;16.90;;;14.60;63.70;;;;;;5061704;28;20588;-61
2024/02/14 05:16:05;;;;;;;73.05;19.25;;;14.50;64.50;;;;;;5064914;28;20080;-62
2024/02/14 05:18:31;;;;;;;80.40;19.38;;;14.50;65.10;;;;;;5062110;28;20109;-62
2024/02/14 05:20:58;;;;;;;74.40;20.92;;;14.40;64.70;;;;;;5060342;28;20088;-61
2024/02/14 05:23:24;;;;;;;91.65;26.17;;;14.40;64.70;;;;;;5061455;28;20081;-61
2024/02/14 05:25:51;;;;;;;80.22;22.67;;;14.40;65.50;;;;;;5059631;28;20460;-61
2024/02/14 05:28:18;;;;;;;84.97;21.45;;;14.30;66.20;;;;;;5059355;28;20084;-62
2024/02/14 05:30:45;;;;;;;87.63;20.33;;;14.30;66.00;;;;;;5066490;28;20073;-62
2024/02/14 05:33:12;;;;;;;85.13;21.95;;;14.20;66.70;;;;;;5065758;28;20175;-62
2024/02/14 05:35:38;;;;;;;72.82;21.05;;;14.20;67.30;;;;;;5063453;28;20129;-61
2024/02/14 05:38:07;;;;;;;81.35;24.50;;;14.10;66.50;;;;;;5063395;28;20101;-62
2024/02/14 05:40:35;;;;;;;103.78;26.05;;;14.10;66.70;;;;;;5062577;28;20082;-61
2024/02/14 05:43:02;;;;;;;91.15;26.30;;;14.00;66.70;;;;;;5061460;28;20150;-62
2024/02/14 05:45:29;;;;;;;79.03;24.33;;;14.00;67.00;;;;;;5062385;28;20081;-62
2024/02/14 05:47:55;;;;;;;74.65;23.25;;;14.00;68.10;;;;;;5063351;28;20092;-62
2024/02/14 05:50:21;;;;;;;89.63;23.55;;;13.90;68.90;;;;;;5060578;28;20077;-62
2024/02/14 05:52:48;;;;;;;85.97;25.50;;;13.80;69.30;;;;;;5060459;28;20145;-62
2024/02/14 05:55:14;;;;;;;95.82;28.33;;;13.90;69.00;;;;;;5060798;28;20077;-62
2024/02/14 05:57:41;;;;;;;100.18;29.33;;;13.80;70.40;;;;;;5063207;28;20166;-62
2024/02/14 06:00:10;;;;;;;87.53;26.88;;;13.70;69.80;;;;;;5062692;28;20089;-61
2024/02/14 06:02:36;;;;;;;103.13;27.25;;;13.60;69.60;;;;;;5060803;28;20085;-61
2024/02/14 06:05:03;;;;;;;92.15;27.85;;;13.60;70.70;;;;;;5061421;28;20105;-62
2024/02/14 06:07:29;;;;;;;79.63;30.20;;;13.60;70.00;;;;;;5062156;28;20076;-63
2024/02/14 06:09:55;;;;;;;110.60;33.00;;;13.50;70.50;;;;;;5062057;28;20098;-62
2024/02/14 06:12:21;;;;;;;;;;;13.50;70.70;;;;;;5064894;28;20077;-62
2024/02/14 06:14:51;;;;;;;94.72;30.55;;;13.50;70.10;;;;;;5061780;28;20055;-61
2024/02/14 06:17:17;;;;;;;123.35;33.30;;;13.40;70.30;;;;;;5059535;28;20808;-63
2024/02/14 06:19:44;;;;;;;129.13;31.98;;;13.40;70.60;;;;;;5064330;28;20109;-62
2024/02/14 06:22:11;;;;;;;87.10;29.92;;;13.40;70.80;;;;;;5060710;28;20132;-62
2024/02/14 06:24:37;;;;;;;109.65;32.55;;;13.40;71.30;;;;;;5061942;28;20077;-64
2024/02/14 06:27:04;;;;;;;108.22;32.00;;;13.40;72.20;;;;;;5063964;28;20631;-63
2024/02/14 06:29:31;;;;;;;115.28;33.10;;;13.30;72.90;;;;;;5063201;28;20081;-61
2024/02/14 06:31:57;;;;;;;130.77;34.15;;;13.30;72.60;;;;;;5064182;28;20084;-62
2024/02/14 06:34:25;;;;;;;103.20;34.83;;;13.20;73.40;;;;;;5059373;28;20077;-60
2024/02/14 06:36:52;;;;;;;101.03;35.10;;;13.10;73.30;;;;;;5062364;28;20118;-63
2024/02/14 06:39:20;;;;;;;134.80;37.20;;;13.10;73.70;;;;;;5061320;28;20104;-62
2024/02/14 06:41:47;;;;;;;116.85;33.88;;;13.20;73.50;;;;;;5062688;28;20099;-60
2024/02/14 06:44:14;;;;;;;107.38;32.88;;;13.10;73.50;;;;;;5062558;28;20081;-61
2024/02/14 06:46:42;;;;;;;116.20;35.60;;;13.00;74.10;;;;;;5061658;28;20069;-63
2024/02/14 06:49:08;;;;;;;134.75;33.78;;;13.10;73.90;;;;;;5059520;28;20081;-62
2024/02/14 06:51:35;;;;;;;128.95;34.97;;;13.00;73.70;;;;;;5060652;28;20136;-61
2024/02/14 06:54:02;;;;;;;113.95;41.40;;;13.00;73.80;;;;;;5061715;28;20073;-61
2024/02/14 06:56:30;;;;;;;163.48;74.47;;;13.00;74.80;;;;;;5061202;28;20107;-60
2024/02/14 06:58:59;;;;;;;130.27;47.08;;;12.90;75.10;;;;;;5063857;28;20097;-62
2024/02/14 07:01:29;;;;;;;119.63;34.83;;;12.90;75.10;;;;;;5065984;28;21055;-61
2024/02/14 07:03:56;;;;;;;140.90;32.85;;;12.90;75.50;;;;;;5061449;28;20080;-60
2024/02/14 07:06:23;;;;;;;123.78;31.40;;;12.80;75.40;;;;;;5063487;28;20077;-60
2024/02/14 07:08:49;;;;;;;117.03;30.88;;;12.80;75.70;;;;;;5060117;28;20085;-60
2024/02/14 07:11:16;;;;;;;110.47;31.23;;;12.90;75.30;;;;;;5060617;28;20081;-60
2024/02/14 07:13:43;;;;;;;127.82;35.28;;;12.90;75.70;;;;;;5059599;28;20515;-61
2024/02/14 07:16:09;;;;;;;102.78;30.48;;;12.90;75.90;;;;;;5063018;28;20537;-60
2024/02/14 07:18:36;;;;;;;93.10;29.63;;;12.80;76.70;;;;;;5065128;28;20132;-60
2024/02/14 07:21:05;;;;;;;119.53;35.08;;;12.80;76.40;;;;;;5064394;28;20451;-61
2024/02/14 07:23:33;;;;;;;101.57;31.77;;;12.80;76.80;;;;;;5060913;28;20077;-61
2024/02/14 07:26:03;;;;;;;94.68;30.52;;;12.80;76.90;;;;;;5059864;28;20081;-61
2024/02/14 07:28:30;;;;;;;112.57;31.50;;;12.70;77.50;;;;;;5062891;28;20074;-61
2024/02/14 07:30:56;;;;;;;118.32;33.55;;;12.70;77.50;;;;;;5060960;28;20074;-61
2024/02/14 07:33:23;;;;;;;113.28;32.03;;;12.70;77.80;;;;;;5060691;28;20073;-62
2024/02/14 07:35:50;;;;;;;106.00;31.75;;;12.70;77.90;;;;;;5069356;28;20073;-61
2024/02/14 07:38:17;;;;;;;99.78;30.75;;;12.70;77.20;;;;;;5065737;28;20100;-61
2024/02/14 07:40:44;;;;;;;93.68;31.40;;;12.70;77.90;;;;;;5064097;28;20164;-61
2024/02/14 07:43:10;;;;;;;99.80;31.70;;;12.60;78.20;;;;;;5064027;28;20123;-60
2024/02/14 07:45:37;;;;;;;104.82;31.98;;;12.50;79.40;;;;;;5065209;28;20132;-62
2024/02/14 07:48:04;;;;;;;116.32;32.08;;;12.50;78.90;;;;;;5066053;28;20069;-60
2024/02/14 07:50:30;;;;;;;102.35;31.90;;;12.40;79.00;;;;;;5064354;28;20069;-60
2024/02/14 07:52:58;;;;;;;93.63;32.13;;;12.40;79.30;;;;;;5059140;28;20121;-61
2024/02/14 07:55:24;;;;;;;104.75;33.00;;;12.40;78.90;;;;;;5063113;28;20528;-61
2024/02/14 07:57:52;;;;;;;115.90;34.25;;;12.30;79.10;;;;;;5063796;28;20131;-61
2024/02/14 08:00:22;;;;;;;106.30;33.60;;;12.30;79.70;;;;;;5063198;28;20080;-62
2024/02/14 08:02:52;;;;;;;98.60;33.78;;;12.30;80.70;;;;;;5065728;28;21537;-62
2024/02/14 08:05:19;;;;;;;111.93;33.05;;;12.20;80.40;;;;;;5068517;28;20679;-60
2024/02/14 08:07:48;;;;;;;103.25;32.30;;;12.10;81.20;;;;;;5062264;28;20816;-60
2024/02/14 08:10:15;;;;;;;112.22;31.90;;;12.10;81.30;;;;;;5064969;28;20081;-60
2024/02/14 08:12:41;;;;;;;107.30;32.47;;;12.10;80.40;;;;;;5065033;28;20448;-60
2024/02/14 08:15:08;;;;;;;121.03;34.95;;;12.10;80.90;;;;;;5066332;28;20458;-60
2024/02/14 08:17:35;;;;;;;108.05;33.22;;;12.00;81.30;;;;;;5064386;28;20073;-60
2024/02/14 08:20:03;;;;;;;122.68;38.08;;;11.90;82.70;;;;;;5065662;28;20077;-61
2024/02/14 08:22:30;;;;;;;115.45;36.45;;;11.90;82.60;;;;;;5063050;28;20073;-60
2024/02/14 08:24:58;;;;;;;156.00;40.10;;;11.90;82.10;;;;;;5062884;28;20081;-60
2024/02/14 08:27:25;;;;;;;146.52;36.58;;;12.00;82.20;;;;;;5065674;28;20089;-60
2024/02/14 08:29:52;;;;;;;140.05;36.33;;;11.90;83.00;;;;;;5067497;28;20088;-60
2024/02/14 08:32:18;;;;;;;113.28;33.78;;;12.00;83.10;;;;;;5063393;28;20078;-60
2024/02/14 08:34:45;;;;;;;144.70;35.67;;;12.00;82.80;;;;;;5064252;28;20142;-60
2024/02/14 08:37:12;;;;;;;106.13;31.10;;;12.00;82.60;;;;;;5065314;28;20587;-60
2024/02/14 08:39:39;;;;;;;114.72;31.90;;;11.90;82.90;;;;;;5064701;28;20473;-60
2024/02/14 08:42:07;;;;;;;112.10;33.30;;;11.90;83.30;;;;;;5062643;28;20257;-61
2024/02/14 08:44:37;;;;;;;94.88;31.58;;;12.00;83.10;;;;;;5062443;28;20113;-60
2024/02/14 08:47:04;;;;;;;119.28;32.28;;;12.00;82.80;;;;;;5062455;28;20456;-61
2024/02/14 08:49:31;;;;;;;108.00;31.80;;;11.90;83.50;;;;;;5062327;28;20515;-60
2024/02/14 08:51:57;;;;;;;102.22;28.48;;;11.90;83.50;;;;;;5064998;28;20162;-61
2024/02/14 08:54:24;;;;;;;116.38;31.67;;;11.90;83.50;;;;;;5062339;28;20072;-61
2024/02/14 08:56:55;;;;;;;131.63;33.08;;;11.90;83.40;;;;;;5061569;28;20085;-61
2024/02/14 08:59:21;;;;;;;98.45;28.70;;;11.80;83.70;;;;;;5058302;28;20105;-61
2024/02/14 09:01:48;;;;;;;133.65;31.50;;;11.90;84.20;;;;;;5060416;28;20069;-61
2024/02/14 09:04:15;;;;;;;150.40;33.97;;;11.90;83.70;;;;;;5063398;28;20070;-61
2024/02/14 09:06:41;;;;;;;89.80;30.35;;;11.80;84.70;;;;;;5063526;28;20083;-61
2024/02/14 09:09:10;;;;;;;125.15;32.42;;;11.70;85.70;;;;;;5063333;28;20073;-62
2024/02/14 09:11:37;;;;;;;120.45;29.90;;;11.60;84.80;;;;;;5062440;28;20073;-60
2024/02/14 09:14:06;;;;;;;107.30;30.75;;;11.60;85.80;;;;;;5065492;28;20608;-61
2024/02/14 09:16:34;;;;;;;126.32;31.60;;;11.70;85.50;;;;;;5065995;28;20092;-60
2024/02/14 09:19:01;;;;;;;96.05;30.27;;;11.80;85.00;;;;;;5062091;28;20101;-60
2024/02/14 09:21:28;;;;;;;94.50;28.33;;;11.70;84.90;;;;;;5063370;28;20077;-61
2024/02/14 09:23:55;;;;;;;105.75;29.75;;;11.70;85.40;;;;;;5062507;28;20083;-60
2024/02/14 09:26:21;;;;;;;123.43;31.25;;;11.70;86.20;;;;;;5063423;28;20069;-60
2024/02/14 09:28:48;;;;;;;101.10;29.52;;;11.60;86.00;;;;;;5064507;28;20084;-60
2024/02/14 09:31:19;;;;;;;92.30;30.33;;;11.50;85.90;;;;;;5059562;28;20076;-60
2024/02/14 09:33:48;;;;;;;124.35;31.17;;;11.50;86.30;;;;;;5060265;28;20130;-60
2024/02/14 09:36:15;;;;;;;89.22;28.70;;;11.60;86.80;;;;;;5060526;28;20088;-60
2024/02/14 09:38:42;;;;;;;94.10;31.63;;;11.50;86.80;;;;;;5060200;28;20105;-61
2024/02/14 09:41:16;;;;;;;112.13;35.58;;;11.50;87.10;;;;;;5062315;28;20066;-61
2024/02/14 09:43:45;;;;;;;98.47;33.72;;;11.40;87.50;;;;;;5063239;28;20100;-61
2024/02/14 09:46:14;;;;;;;101.00;31.02;;;11.40;87.80;;;;;;5063980;28;20156;-61
2024/02/14 09:48:50;;;;;;;118.78;32.17;;;11.40;88.40;;;;;;5064632;28;20552;-61
2024/02/14 09:51:17;;;;;;;87.85;32.20;;;11.40;88.70;;;;;;5063586;28;20114;-60
2024/02/14 09:53:44;;;;;;;92.45;31.40;;;11.40;88.40;;;;;;5063577;28;20122;-60
2024/02/14 09:56:12;;;;;;;104.68;31.23;;;11.40;89.40;;;;;;5063032;28;20094;-61
2024/02/14 09:58:41;;;;;;;82.47;33.47;;;11.30;89.40;;;;;;5059954;28;20192;-63
2024/02/14 10:01:07;;;;;;;96.88;32.38;;;11.20;90.10;;;;;;5061740;28;20077;-59
2024/02/14 10:03:35;;;;;;;83.03;33.30;;;11.30;90.30;;;;;;5064106;28;20095;-61
2024/02/14 10:06:02;;;;;;;98.10;33.75;;;11.20;90.50;;;;;;5062786;28;20100;-60
2024/02/14 10:08:29;;;;;;;73.50;29.80;;;11.10;90.50;;;;;;5059965;28;20080;-60
2024/02/14 10:10:59;;;;;;;79.00;29.13;;;11.10;90.90;;;;;;5059124;28;20087;-61
2024/02/14 10:13:28;;;;;;;85.22;29.27;;;11.10;90.80;;;;;;5063289;28;20234;-60
2024/02/14 10:15:56;;;;;;;84.82;28.90;;;11.00;91.00;;;;;;5061476;28;20081;-61
2024/02/14 10:18:23;;;;;;;77.05;28.55;;;10.90;91.00;;;;;;5062381;28;20116;-61
2024/02/14 10:20:56;;;;;;;78.93;29.75;;;11.00;91.00;;;;;;5063823;28;20073;-61
2024/02/14 10:23:22;;;;;;;75.30;30.02;;;11.00;91.10;;;;;;5059741;28;20127;-61
2024/02/14 10:25:52;;;;;;;82.90;31.98;;;11.00;91.30;;;;;;5063010;28;20073;-62
2024/02/14 10:28:21;;;;;;;60.90;30.88;;;11.10;91.20;;;;;;5066014;28;20073;-60
2024/02/14 10:30:49;;;;;;;67.53;29.40;;;11.10;91.60;;;;;;5064016;28;20449;-59
2024/02/14 10:33:16;;;;;;;71.65;29.58;;;11.10;91.40;;;;;;5061808;28;20077;-60
2024/02/14 10:35:43;;;;;;;74.35;29.52;;;11.10;91.30;;;;;;5061097;28;20138;-60
2024/02/14 10:38:11;;;;;;;75.25;28.15;;;11.10;91.30;;;;;;5060916;28;20105;-60
2024/02/14 10:40:38;;;;;;;70.10;29.02;;;11.10;91.40;;;;;;5060429;28;20081;-60
2024/02/14 10:43:10;;;;;;;73.63;28.35;;;11.20;91.30;;;;;;5062273;28;20484;-60
2024/02/14 10:45:37;;;;;;;64.53;28.02;;;11.10;91.70;;;;;;5057620;28;20153;-61
2024/02/14 10:48:08;;;;;;;61.78;28.02;;;11.10;91.60;;;;;;5062202;28;20077;-60
2024/02/14 10:50:36;;;;;;;63.60;28.63;;;11.10;91.70;;;;;;5058792;28;20073;-61
2024/02/14 10:53:06;;;;;;;69.57;28.48;;;11.10;91.50;;;;;;5058834;28;20109;-61
2024/02/14 10:55:34;;;;;;;59.08;28.77;;;11.10;91.50;;;;;;5060850;28;20065;-62
2024/02/14 10:58:03;;;;;;;72.43;30.60;;;11.00;91.60;;;;;;5059371;28;20101;-61
2024/02/14 11:00:30;;;;;;;63.50;28.75;;;10.90;92.00;;;;;;5045657;28;20147;-60
2024/02/14 11:02:56;;;;;;;60.47;27.52;;;10.80;92.50;;;;;;5058134;28;20441;-61
2024/02/14 11:05:24;;;;;;;67.60;32.03;;;10.70;92.30;;;;;;5057191;28;20115;-62
2024/02/14 11:07:53;;;;;;;70.32;33.65;;;10.60;93.00;;;;;;5057083;28;20069;-62
2024/02/14 11:10:22;;;;;;;62.72;29.80;;;10.50;93.30;;;;;;5063594;28;20069;-60
2024/02/14 11:12:50;;;;;;;64.25;30.50;;;10.50;93.50;;;;;;5065881;28;20522;-60
2024/02/14 11:15:18;;;;;;;65.80;31.30;;;10.50;93.40;;;;;;5063566;28;20085;-60
2024/02/14 11:17:45;;;;;;;67.10;32.70;;;10.50;93.40;;;;;;5064021;28;20077;-60
2024/02/14 11:20:18;;;;;;;67.35;32.78;;;10.40;93.30;;;;;;5064428;28;20083;-61
2024/02/14 11:22:56;;;;;;;64.43;32.58;;;10.50;93.40;;;;;;5059594;28;20082;-61
2024/02/14 11:25:30;;;;;;;58.25;30.58;;;10.30;93.50;;;;;;5063876;28;20077;-60
2024/02/14 11:27:59;;;;;;;66.68;30.45;;;10.30;93.80;;;;;;5063575;28;20084;-61
2024/02/14 11:30:35;;;;;;;57.55;29.95;;;10.20;93.70;;;;;;5063910;28;20591;-60
2024/02/14 11:33:16;;;;;;;63.25;30.17;;;10.30;93.90;;;;;;5060440;28;20080;-60
2024/02/14 11:35:43;;;;;;;64.85;29.48;;;10.40;94.00;;;;;;5061497;28;20070;-60
2024/02/14 11:38:10;;;;;;;64.25;31.00;;;10.50;93.80;;;;;;5060311;28;20472;-60
2024/02/14 11:40:40;;;;;;;67.25;28.13;;;10.40;93.60;;;;;;5064531;28;20077;-61
2024/02/14 11:43:20;;;;;;;59.90;27.80;;;10.30;93.90;;;;;;5061420;28;20077;-60
2024/02/14 11:45:49;;;;;;;62.25;28.77;;;10.40;93.80;;;;;;5063944;28;20077;-60
2024/02/14 11:48:17;;;;;;;57.47;30.30;;;10.40;93.60;;;;;;5064537;28;20073;-61
2024/02/14 11:50:45;;;;;;;65.90;30.55;;;10.30;93.70;;;;;;5064116;28;20069;-61
2024/02/14 11:53:16;;;;;;;57.22;29.50;;;10.20;94.10;;;;;;5060851;28;20124;-61
2024/02/14 11:55:43;;;;;;;71.45;31.02;;;10.10;94.30;;;;;;5062471;28;20268;-61
2024/02/14 11:58:11;;;;;;;65.82;31.90;;;10.00;94.60;;;;;;5063599;28;20136;-60
2024/02/14 12:00:41;;;;;;;63.22;28.83;;;10.00;94.90;;;;;;5064779;28;20425;-61
2024/02/14 12:03:11;;;;;;;64.10;29.90;;;9.90;95.30;;;;;;5060699;28;20433;-59
2024/02/14 12:05:38;;;;;;;66.18;30.13;;;9.80;95.40;;;;;;5065449;28;20141;-60
2024/02/14 12:08:07;;;;;;;61.00;30.73;;;9.80;95.60;;;;;;5068015;28;20068;-61
2024/02/14 12:10:35;;;;;;;61.47;28.27;;;9.80;95.60;;;;;;5067073;28;20272;-60
2024/02/14 12:13:09;;;;;;;62.47;29.85;;;9.90;95.70;;;;;;5061287;28;20168;-61
2024/02/14 12:15:42;;;;;;;61.92;29.95;;;9.80;95.80;;;;;;5062134;28;20110;-60
2024/02/14 12:18:10;;;;;;;63.88;29.83;;;9.90;95.90;;;;;;5060518;28;20111;-60
2024/02/14 12:20:38;;;;;;;61.13;30.35;;;9.90;95.80;;;;;;5064059;28;20123;-60
2024/02/14 12:23:08;;;;;;;58.38;27.05;;;9.90;96.00;;;;;;5062541;28;20065;-61
2024/02/14 12:25:34;;;;;;;57.05;26.70;;;9.70;96.10;;;;;;5063489;28;20120;-61
2024/02/14 12:28:01;;;;;;;65.72;27.17;;;9.80;96.50;;;;;;5061018;28;20088;-61